Kaneohe, HI

8:16 AM HST on March 28, 2015 (GMT -1000)
RAWS OAHU FOREST NWR HI US | | Change Station
CLOSE
Current Station
Personal Weather Station
Location: Kaaawa, HI
Elevation: 2292 ft
Nearby Weather Stations

Elev 2292 ft 21.50 °N, 157.90 °W | Updated 4 days ago

Partly Cloudy
Partly Cloudy
78 °F
Feels Like 78 °F
N
11
Wind Variable Wind from East
Gusts mph

Today
High -- | Low -- °F
--% Chance of Precip.
Yesterday
High -- | Low -- °F
Precip. -- in
6:28 AM 6:45 PM
Waxing Gibbous, 64% visible
Pressure 30.14 in
Visibility -9999.0 miles
Clouds Mostly Cloudy 2300 ft
Overcast 3000 ft
Dew Point 67 °F
Humidity 70%
Rainfall in
Snow Depth Not available.
UV 0 out of 12
Pollen Not available.
Air Quality Not available.
Flu Activity Not available.
METAR PHNG 281757Z 07006KT BKN023 OVC030 24/19 A3016 RMK AO2 SLP207 T02390189 10239 20228 53017 $

More Conditions Fewer Conditions

Pressure 30.14 in
Visibility -9999.0 miles
Clouds Mostly Cloudy 2300 ft
Overcast 3000 ft
Dew Point 67 °F
Humidity 70%
Rainfall in
Snow Depth Not available.
UV 0 out of 12
Pollen Not available.
Air Quality Not available.
Flu Activity Not available.
METAR PHNG 281757Z 07006KT BKN023 OVC030 24/19 A3016 RMK AO2 SLP207 T02390189 10239 20228 53017 $

More Conditions Fewer Conditions

10-Day Weather Forecast

Almanac

Astronomy

Mar. 28, 2015 Rise Set
Actual Time
Civil Twilight
Nautical Twilight
Astronomical Twilight
Moon
Length of Visible Light
Length of Day
Tomorrow will be .
, % of the Moon is Illuminated

Today's Extremes

State Highs State Lows

Community

WunderPhotos

Upload Photos

1,809,050 photos uploaded!

WunderBlogs® & News

Nearby

Air Quality

  Air Quality AQ Index Pollutant
Not available.

Snow Depth

Station Depth Elevation

Earthquake Activity

City Distance Mag. Time & Date
Minimum magnitude displayed is 2.5.

Coastal Water Temperatures

Place Temperature

Stations

Nearby Weather Stations

Station Location Temp. Windchill Dew Point Humidity Wind Precip. Elev Updated Type